Decoded Metar for UHWW (VLADIVOSTOK in RUSSIA) (IATA:VVO) | Meteo·Mobile Aviation Weather
aviador You're here:

UHWW Decoded Metar

VLADIVOSTOK in RUSSIA
Report Time2018-08-21 11:30:00
UTC Time2018-08-21 12:10:38
Flight Rules lifr LIFR
Wind030° at 2 kt
W.Decomp.*RWY 07: 1.7 kt HW 1 kt LCW
W.Rank030° ranks 16
Current wind is below 030° avg. (5.5)
Visibility0450 m
Phenomena:Fog
Clouds:N/A
CeilingNone
Temp20°C (ISA +6)
Dew Point20°C (100% RH)
QNH1000 hPa
Density Alt2,083 ft
Elevation604 ft
Report Wrong Elevation
Raw Report
METAR UHWW 211130Z 03001MPS 0600 0450E R25L/1200D FG NSC 20/20 Q1000
R25L/0///70 NOSIG RMK QFE749=

Extra information for UHWW:More info

Metar Taf Metar & Taf Last 4 Metars F.Rules Stats Wind Profile Meteogram Temp Stats Airport Information Weather charts Add Link Nearby VenuesMetar ALERT Operation Metar Decoded Social comments